Oil Finn — OJ9326 — position and weather

sailwx.info

Track history (hours):
 
Tides and Currents Weather Stations Pressure Air Temp Water Temp Dewpoint Dewpoint Depression Visibility Wind Speed Wind Dir Waves Ship Positions

Oil Finn

Last reported at 2015-Jul-16 06:25 UTC. Time now 2015-Aug-28 19:12 UTC.
Position N 60°15' E 026°16'.
Warning: this ship's position is 43 days out of date.

Length 20 m; draft 2 m.

Type: Tanker. MMSI: 230033790.

Date/timePositionNaut miles runAvg speedWind from/ knotsBaromVisibWave heightAir tempDewpointWater temp
2015-Jul-16 06:25N 60°15' E 026°16'6 6.8
2015-Jul-16 05:33N 60°17' E 026°27'7 7.0
2015-Jul-16 04:33N 60°20' E 026°41'6 6.4
2015-Jul-16 03:33N 60°20' E 026°54'7 6.9
2015-Jul-16 02:33N 60°18' E 027°07'2 0.2
2015-Jul-15 13:33N 60°17' E 027°11'0 0.0
2015-Jul-15 12:32N 60°17' E 027°11'1 0.3
2015-Jul-15 10:27N 60°18' E 027°12'5 6.1
2015-Jul-15 09:34N 60°19' E 027°01'6 6.2
2015-Jul-15 08:33N 60°21' E 026°49'6 6.4
2015-Jul-15 07:34N 60°19' E 026°36'5 0.4
2015-Jul-14 18:34N 60°17' E 026°27'8 5.8
2015-Jul-14 17:13N 60°14' E 026°12'5 5.6
2015-Jul-14 16:21N 60°12' E 026°03'  
Track history (hours):
 
Tides and Currents Weather Stations Pressure Air Temp Water Temp Dewpoint Dewpoint Depression Visibility Wind Speed Wind Dir Waves Ship Positions

Oil Finn

Last reported at 2015-Jul-16 06:25 UTC. Time now 2015-Aug-28 19:12 UTC.
Position N 60°15' E 026°16'.
Warning: this ship's position is 43 days out of date.

Length 20 m; draft 2 m.

Type: Tanker. MMSI: 230033790.

Date/timePositionNaut miles runAvg speedWind from/ knotsBaromVisibWave heightAir tempDewpointWater temp
2015-Jul-16 06:25N 60°15' E 026°16'6 6.8
2015-Jul-16 05:33N 60°17' E 026°27'7 7.0
2015-Jul-16 04:33N 60°20' E 026°41'6 6.4
2015-Jul-16 03:33N 60°20' E 026°54'7 6.9
2015-Jul-16 02:33N 60°18' E 027°07'2 0.2
2015-Jul-15 13:33N 60°17' E 027°11'0 0.0
2015-Jul-15 12:32N 60°17' E 027°11'1 0.3
2015-Jul-15 10:27N 60°18' E 027°12'5 6.1
2015-Jul-15 09:34N 60°19' E 027°01'6 6.2
2015-Jul-15 08:33N 60°21' E 026°49'6 6.4
2015-Jul-15 07:34N 60°19' E 026°36'5 0.4
2015-Jul-14 18:34N 60°17' E 026°27'8 5.8
2015-Jul-14 17:13N 60°14' E 026°12'5 5.6
2015-Jul-14 16:21N 60°12' E 026°03'  

Dump ship's entire track history